Time;durP1;ratioP1;P1;durP2;ratioP2;P2;SDS_P1;SDS_P2;PMS_P1;PMS_P2;Temp;Humidity;BMP_temperature;BMP_pressure;BME280_temperature;BME280_humidity;BME280_pressure;Samples;Min_cycle;Max_cycle;Signal;HPM_P1;HPM_P2
2022/08/31 00:04:11;;;;;;;5.65;4.75;;;24.40;99.90;;;;;;5009724;28;20049;-70
2022/08/31 00:07:15;;;;;;;9.18;5.32;;;24.30;99.90;;;;;;5009700;28;20049;-70
2022/08/31 00:10:24;;;;;;;7.85;5.40;;;24.30;99.90;;;;;;5012821;28;20044;-70
2022/08/31 00:13:29;;;;;;;6.43;4.72;;;24.30;99.90;;;;;;5012051;28;20041;-70
2022/08/31 00:16:37;;;;;;;14.70;5.63;;;24.40;99.90;;;;;;5013530;28;20495;-69
2022/08/31 00:19:41;;;;;;;6.43;5.03;;;24.30;99.90;;;;;;5013880;28;20049;-70
2022/08/31 00:22:45;;;;;;;12.23;5.18;;;24.30;99.90;;;;;;5013650;28;20049;-70
2022/08/31 00:25:49;;;;;;;6.88;5.03;;;24.40;99.90;;;;;;5013562;28;20061;-69
2022/08/31 00:29:12;;;;;;;5.32;4.75;;;24.40;99.90;;;;;;5013457;28;20037;-70
2022/08/31 00:32:16;;;;;;;9.45;5.25;;;24.40;99.90;;;;;;5024061;28;20279;-70
2022/08/31 00:35:40;;;;;;;10.73;5.28;;;24.30;99.90;;;;;;5012007;28;20041;-70
2022/08/31 00:38:47;;;;;;;9.60;5.35;;;24.30;99.90;;;;;;5013357;28;20048;-70
2022/08/31 00:41:50;;;;;;;7.45;5.53;;;24.20;99.90;;;;;;5013504;28;20516;-69
2022/08/31 00:44:54;;;;;;;6.75;5.65;;;24.10;99.90;;;;;;5012788;28;20290;-70
2022/08/31 00:47:59;;;;;;;6.03;5.22;;;24.10;99.90;;;;;;5012905;28;20499;-69
2022/08/31 00:51:03;;;;;;;6.35;5.72;;;24.00;99.90;;;;;;5013344;28;20408;-69
2022/08/31 00:54:09;;;;;;;7.15;5.60;;;24.10;99.90;;;;;;5011620;28;20041;-69
2022/08/31 00:57:15;;;;;;;8.00;5.53;;;24.10;99.90;;;;;;5012879;28;20045;-70
2022/08/31 01:00:24;;;;;;;8.93;5.32;;;24.00;99.90;;;;;;5023433;28;20044;-69
2022/08/31 01:03:28;;;;;;;6.70;4.82;;;24.10;99.90;;;;;;5012106;28;20053;-69
2022/08/31 01:06:52;;;;;;;5.72;4.45;;;24.00;99.90;;;;;;5023040;28;20033;-69
2022/08/31 01:10:18;;;;;;;9.27;3.85;;;24.00;99.90;;;;;;5012751;28;20081;-69
2022/08/31 01:13:23;;;;;;;7.43;4.30;;;24.00;99.90;;;;;;5011193;28;20397;-70
2022/08/31 01:16:36;;;;;;;5.07;3.80;;;24.00;99.90;;;;;;5012674;28;20388;-70
2022/08/31 01:20:05;;;;;;;6.55;3.83;;;24.00;99.90;;;;;;5012227;28;20396;-70
2022/08/31 01:23:33;;;;;;;10.93;4.82;;;24.00;99.90;;;;;;5011819;28;20045;-69
2022/08/31 01:26:37;;;;;;;7.45;3.90;;;24.10;99.90;;;;;;5012503;28;20049;-70
2022/08/31 01:29:42;;;;;;;6.90;4.25;;;24.00;99.90;;;;;;5011984;28;20044;-69
2022/08/31 01:32:45;;;;;;;9.20;4.72;;;24.10;99.90;;;;;;5022916;28;20462;-69
2022/08/31 01:35:50;;;;;;;7.00;4.90;;;24.10;99.90;;;;;;5012278;28;20052;-69
2022/08/31 01:39:13;;;;;;;6.32;3.78;;;24.10;99.90;;;;;;5011146;28;20045;-69
2022/08/31 01:42:18;;;;;;;7.35;3.22;;;24.00;99.90;;;;;;5012143;28;20044;-70
2022/08/31 01:45:23;;;;;;;7.43;3.58;;;24.00;99.90;;;;;;5022322;28;20045;-70
2022/08/31 01:48:27;;;;;;;5.50;3.78;;;24.00;99.90;;;;;;5011799;28;20049;-70
2022/08/31 01:51:32;;;;;;;7.80;3.80;;;24.00;99.90;;;;;;5022430;28;20393;-71
2022/08/31 01:54:36;;;;;;;7.30;3.10;;;24.00;99.90;;;;;;5021796;28;20040;-70
2022/08/31 01:57:42;;;;;;;4.25;3.10;;;24.00;99.90;;;;;;5010729;28;20044;-69
2022/08/31 02:01:05;;;;;;;4.82;3.50;;;24.00;99.90;;;;;;5011751;28;20041;-69
2022/08/31 02:04:12;;;;;;;12.23;3.22;;;23.90;99.90;;;;;;5010435;28;20053;-69
2022/08/31 02:07:16;;;;;;;6.30;3.42;;;23.90;99.90;;;;;;5010699;28;20417;-69
2022/08/31 02:10:20;;;;;;;5.40;3.63;;;23.80;99.90;;;;;;5022108;28;20421;-69
2022/08/31 02:13:24;;;;;;;4.25;3.28;;;23.70;99.90;;;;;;5010850;28;20049;-69
2022/08/31 02:16:28;;;;;;;7.32;4.13;;;23.60;99.90;;;;;;5011335;28;20041;-70
2022/08/31 02:19:50;;;;;;;5.75;3.72;;;23.50;99.90;;;;;;5021768;28;20064;-70
2022/08/31 02:23:13;;;;;;;7.80;3.50;;;23.40;99.90;;;;;;5011376;28;20061;-69
2022/08/31 02:26:18;;;;;;;4.88;3.47;;;23.30;99.90;;;;;;5022113;28;20056;-69
2022/08/31 02:29:23;;;;;;;6.15;3.33;;;23.30;99.90;;;;;;5010271;28;20489;-69
2022/08/31 02:32:27;;;;;;;10.57;3.88;;;23.10;99.90;;;;;;5021142;28;20041;-70
2022/08/31 02:35:34;;;;;;;6.53;3.40;;;23.00;99.90;;;;;;5010343;28;20053;-69
2022/08/31 02:38:39;;;;;;;8.70;3.88;;;23.00;99.90;;;;;;5021781;28;20048;-69
2022/08/31 02:42:02;;;;;;;7.07;3.78;;;23.00;99.90;;;;;;5010482;28;20053;-70
2022/08/31 02:45:07;;;;;;;5.78;3.53;;;23.00;99.90;;;;;;5020894;28;20435;-69
2022/08/31 02:48:11;;;;;;;5.82;3.47;;;23.00;99.90;;;;;;5010180;28;20048;-69
2022/08/31 02:54:39;;;;;;;8.63;3.60;;;23.00;99.90;;;;;;5009689;28;20045;-69
2022/08/31 02:57:43;;;;;;;5.40;3.10;;;22.90;99.90;;;;;;5010816;28;20254;-70
2022/08/31 03:00:48;;;;;;;6.60;3.22;;;22.90;99.90;;;;;;5021410;28;20503;-69
2022/08/31 03:03:55;;;;;;;7.50;3.97;;;22.90;99.90;;;;;;5020551;28;20049;-69
2022/08/31 03:07:18;;;;;;;8.10;4.10;;;22.80;99.90;;;;;;5018720;28;20057;-69
2022/08/31 03:10:23;;;;;;;3.67;3.10;;;22.60;99.90;;;;;;5009538;28;20048;-69
2022/08/31 03:13:28;;;;;;;6.68;3.80;;;22.60;99.90;;;;;;5010417;28;20059;-69
2022/08/31 03:16:32;;;;;;;8.05;3.03;;;22.60;99.90;;;;;;5009547;28;20061;-69
2022/08/31 03:19:36;;;;;;;6.05;3.65;;;22.60;99.90;;;;;;5009704;28;20052;-69
2022/08/31 03:22:40;;;;;;;8.30;3.03;;;22.70;99.90;;;;;;5010479;28;20048;-69
2022/08/31 03:25:44;;;;;;;7.00;3.28;;;22.70;99.90;;;;;;5021063;28;20503;-69
2022/08/31 03:29:07;;;;;;;5.68;3.80;;;22.60;99.90;;;;;;5009687;28;20480;-69
2022/08/31 03:32:49;;;;;;;7.18;3.83;;;22.60;99.90;;;;;;5010696;28;20396;-69
2022/08/31 03:35:54;;;;;;;6.20;3.85;;;22.60;99.90;;;;;;5020757;28;20048;-69
2022/08/31 03:38:58;;;;;;;6.75;4.05;;;22.50;99.90;;;;;;5010421;28;20045;-68
2022/08/31 03:42:05;;;;;;;6.38;3.92;;;22.40;99.90;;;;;;5009533;28;20045;-69
2022/08/31 03:45:10;;;;;;;9.25;4.40;;;22.40;99.90;;;;;;5012900;28;20049;-69
2022/08/31 03:48:53;;;;;;;8.45;4.88;;;22.30;99.90;;;;;;5014164;28;20048;-69
2022/08/31 03:55:27;;;;;;;8.23;5.55;;;22.30;99.90;;;;;;5012952;28;20057;-68
2022/08/31 03:58:31;;;;;;;9.38;6.43;;;22.30;99.90;;;;;;5024588;28;20064;-69
2022/08/31 04:01:37;;;;;;;7.60;6.25;;;22.30;99.90;;;;;;5012949;28;20049;-69
2022/08/31 04:05:01;;;;;;;12.02;6.35;;;22.30;99.90;;;;;;5008157;28;20053;-69
2022/08/31 04:08:24;;;;;;;10.27;7.30;;;22.20;99.90;;;;;;5013932;28;20068;-69
2022/08/31 04:11:48;;;;;;;12.55;8.00;;;22.20;99.90;;;;;;5013779;28;20045;-69
2022/08/31 04:18:53;;;;;;;13.50;7.70;;;22.20;99.90;;;;;;5013952;28;20048;-69
2022/08/31 04:21:58;;;;;;;12.20;8.75;;;22.20;99.90;;;;;;5012813;28;20048;-70
2022/08/31 04:25:20;;;;;;;10.27;7.18;;;22.20;99.90;;;;;;5013232;28;20769;-69
2022/08/31 04:28:24;;;;;;;6.30;4.07;;;22.10;99.90;;;;;;5024096;28;20053;-70
2022/08/31 04:31:29;;;;;;;7.30;5.50;;;22.00;99.90;;;;;;5011915;28;20053;-69
2022/08/31 04:34:33;;;;;;;10.65;8.82;;;22.00;99.90;;;;;;5012765;28;20431;-69
2022/08/31 04:38:15;;;;;;;14.90;9.20;;;21.70;99.90;;;;;;5013051;28;20040;-69
2022/08/31 04:41:21;;;;;;;17.30;9.65;;;21.60;99.90;;;;;;5012931;28;21017;-69
2022/08/31 04:44:45;;;;;;;13.02;9.27;;;21.30;99.90;;;;;;5023742;28;20040;-69
2022/08/31 04:48:26;;;;;;;17.45;10.32;;;21.20;99.90;;;;;;5013866;28;20061;-69
2022/08/31 04:55:12;;;;;;;21.58;9.75;;;21.30;99.90;;;;;;5012143;28;20053;-69
2022/08/31 04:58:19;;;;;;;11.43;8.00;;;21.30;99.90;;;;;;5013996;28;20048;-70
2022/08/31 05:01:25;;;;;;;9.35;8.13;;;21.40;99.90;;;;;;5013449;28;20500;-69
2022/08/31 05:05:05;;;;;;;12.05;8.35;;;21.40;99.90;;;;;;4992011;28;20057;-69
2022/08/31 05:08:09;;;;;;;12.52;7.90;;;21.50;99.90;;;;;;5013084;28;20040;-69
2022/08/31 05:11:16;;;;;;;9.93;7.57;;;21.60;99.90;;;;;;5023727;28;20060;-69
2022/08/31 05:17:55;;;;;;;11.55;7.18;;;21.60;99.90;;;;;;5012482;28;20530;-69
2022/08/31 05:21:27;;;;;;;10.85;7.55;;;21.60;99.90;;;;;;5012624;28;20388;-69
2022/08/31 05:24:34;;;;;;;10.05;8.10;;;21.60;99.90;;;;;;5012168;28;20078;-70
2022/08/31 05:27:40;;;;;;;9.10;6.82;;;21.80;99.90;;;;;;5012193;28;20057;-70
2022/08/31 05:30:46;;;;;;;9.07;6.47;;;23.60;99.90;;;;;;5024045;28;20117;-70
2022/08/31 05:34:06;;;;;;;8.00;5.65;;;25.60;99.90;;;;;;5011901;28;20061;-70
2022/08/31 05:37:14;;;;;;;8.85;6.07;;;26.40;99.90;;;;;;5012055;28;20515;-69
2022/08/31 05:40:18;;;;;;;10.82;6.30;;;25.70;99.90;;;;;;5023666;28;20044;-70
2022/08/31 05:43:23;;;;;;;8.57;6.38;;;25.10;99.90;;;;;;5011455;28;20068;-69
2022/08/31 05:46:28;;;;;;;15.18;6.00;;;24.40;99.90;;;;;;5012314;28;20040;-69
2022/08/31 05:49:34;;;;;;;13.10;6.45;;;24.00;99.90;;;;;;5023179;28;20053;-70
2022/08/31 05:52:37;;;;;;;9.38;4.80;;;25.20;99.90;;;;;;5011784;28;20049;-69
2022/08/31 05:56:00;;;;;;;11.43;4.85;;;26.90;99.90;;;;;;5023394;28;20048;-70
2022/08/31 05:59:04;;;;;;;6.93;3.60;;;28.20;99.90;;;;;;5011466;28;20049;-70
2022/08/31 06:02:12;;;;;;;4.60;3.22;;;29.30;99.90;;;;;;5022612;28;20041;-69
2022/08/31 06:05:17;;;;;;;6.88;2.75;;;30.00;99.90;;;;;;5023217;28;20052;-70
2022/08/31 06:08:23;;;;;;;9.75;3.10;;;30.60;99.90;;;;;;5022553;28;20045;-70
2022/08/31 06:11:50;;;;;;;5.60;2.45;;;31.00;99.90;;;;;;5022967;28;20053;-70
2022/08/31 06:14:54;;;;;;;9.35;2.20;;;32.50;99.90;;;;;;5035305;28;20048;-70
2022/08/31 06:17:58;;;;;;;4.07;2.45;;;33.00;99.90;;;;;;5034031;28;20116;-70
2022/08/31 06:21:08;;;;;;;7.43;3.08;;;32.10;99.90;;;;;;5028462;28;20048;-70
2022/08/31 06:24:13;;;;;;;6.45;2.78;;;31.70;99.90;;;;;;5038126;28;20052;-71
2022/08/31 06:27:18;;;;;;;6.18;2.33;;;31.80;99.90;;;;;;5029335;28;20051;-70
2022/08/31 06:37:28;;;;;;;6.57;2.30;;;32.50;99.90;;;;;;5018723;28;20495;-71
2022/08/31 06:40:44;;;;;;;3.97;2.60;;;32.70;99.90;;;;;;5028502;28;20040;-71
2022/08/31 06:44:19;;;;;;;6.03;2.65;;;31.80;99.90;;;;;;5015744;28;20033;-71
2022/08/31 06:47:43;;;;;;;7.53;3.13;;;30.50;99.90;;;;;;5045171;28;20040;-70
2022/08/31 06:50:57;;;;;;;8.45;3.53;;;29.10;99.90;;;;;;5021216;28;20044;-70
2022/08/31 06:54:06;;;;;;;5.97;2.83;;;29.70;99.90;;;;;;5025604;28;20053;-70
2022/08/31 06:57:42;;;;;;;6.75;2.92;;;30.60;99.90;;;;;;4996635;28;20053;-70
2022/08/31 07:01:10;;;;;;;8.95;2.65;;;30.20;99.90;;;;;;5020477;28;20234;-71
2022/08/31 07:05:01;;;;;;;4.55;3.00;;;30.90;99.90;;;;;;5032481;28;20049;-71
2022/08/31 07:08:05;;;;;;;4.22;2.53;;;31.00;99.90;;;;;;5025739;28;20048;-71
2022/08/31 07:11:19;;;;;;;6.97;2.90;;;31.80;99.90;;;;;;5029356;28;20697;-71
2022/08/31 07:14:25;;;;;;;6.15;2.42;;;32.60;99.90;;;;;;5021488;28;20036;-70
2022/08/31 07:17:31;;;;;;;8.82;2.42;;;33.40;99.90;;;;;;5031408;28;20496;-70
2022/08/31 07:20:37;;;;;;;7.03;2.50;;;34.70;99.90;;;;;;5018591;28;20041;-70
2022/08/31 07:23:44;;;;;;;3.20;2.17;;;35.30;99.80;;;;;;5019506;28;20401;-71
2022/08/31 07:26:56;;;;;;;6.43;1.77;;;35.90;99.10;;;;;;5019405;28;20037;-71
2022/08/31 07:30:08;;;;;;;5.15;1.50;;;37.20;97.70;;;;;;5019722;28;20052;-70
2022/08/31 07:33:13;;;;;;;3.25;1.73;;;37.70;96.20;;;;;;5020873;28;20052;-71
2022/08/31 07:36:25;;;;;;;2.47;1.33;;;38.20;95.70;;;;;;5019630;28;20036;-71
2022/08/31 07:43:04;;;;;;;3.78;1.30;;;39.60;93.60;;;;;;5013928;28;20381;-71
2022/08/31 07:46:09;;;;;;;2.75;1.00;;;40.70;92.00;;;;;;5026864;28;20045;-72
2022/08/31 07:49:15;;;;;;;2.55;1.05;;;40.00;92.00;;;;;;5025755;28;20044;-72
2022/08/31 07:52:52;;;;;;;3.08;1.27;;;41.40;91.20;;;;;;5018619;28;20080;-69
2022/08/31 07:56:36;;;;;;;3.35;1.30;;;41.90;90.10;;;;;;4985275;28;20042;-71
2022/08/31 08:00:14;;;;;;;3.42;1.10;;;39.20;90.80;;;;;;4985123;28;20039;-71
2022/08/31 08:03:19;;;;;;;3.38;1.50;;;35.90;92.40;;;;;;5019540;28;20068;-70
2022/08/31 08:07:05;;;;;;;6.05;1.40;;;34.30;94.60;;;;;;5011772;28;20040;-71
2022/08/31 08:10:50;;;;;;;3.25;1.98;;;32.90;96.40;;;;;;5018800;28;20591;-70
2022/08/31 08:14:16;;;;;;;5.72;1.80;;;32.20;96.80;;;;;;5016221;28;20499;-70
2022/08/31 08:17:42;;;;;;;2.97;1.60;;;31.80;97.80;;;;;;5013673;28;20041;-70
2022/08/31 08:20:51;;;;;;;7.22;1.88;;;31.30;98.80;;;;;;5035787;28;20048;-71
2022/08/31 08:23:55;;;;;;;5.40;2.30;;;31.10;99.20;;;;;;5026398;28;20511;-71
2022/08/31 08:27:22;;;;;;;7.18;2.55;;;30.70;99.90;;;;;;5001922;28;20385;-70
2022/08/31 08:30:36;;;;;;;5.10;2.03;;;30.20;99.90;;;;;;5023535;28;20494;-70
2022/08/31 08:33:41;;;;;;;4.10;2.10;;;29.20;99.90;;;;;;5018606;28;20040;-70
2022/08/31 08:36:46;;;;;;;4.90;2.10;;;29.00;99.90;;;;;;5024636;28;20229;-70
2022/08/31 08:39:50;;;;;;;5.03;1.75;;;31.60;99.90;;;;;;5019462;28;20038;-71
2022/08/31 08:42:58;;;;;;;4.68;1.80;;;35.10;98.90;;;;;;5029995;28;20899;-72
2022/08/31 08:46:07;;;;;;;3.50;1.40;;;37.70;95.10;;;;;;5019422;28;20495;-72
2022/08/31 08:49:27;;;;;;;2.42;1.20;;;40.30;92.50;;;;;;5019271;28;20374;-72
2022/08/31 08:52:50;;;;;;;2.08;1.00;;;42.80;90.00;;;;;;5021930;28;20053;-70
2022/08/31 08:55:54;;;;;;;9.73;1.15;;;44.40;85.10;;;;;;5023127;28;20049;-69
2022/08/31 08:58:59;;;;;;;3.30;1.13;;;45.40;80.20;;;;;;5025410;28;20037;-70
2022/08/31 09:02:18;;;;;;;4.43;0.95;;;46.00;77.40;;;;;;5033648;28;20401;-70
2022/08/31 09:06:01;;;;;;;3.22;0.90;;;47.40;73.00;;;;;;5026644;28;20044;-69
2022/08/31 09:09:27;;;;;;;2.60;1.00;;;48.50;70.90;;;;;;4923598;29;20046;-70
2022/08/31 09:12:57;;;;;;;5.32;1.30;;;43.20;72.00;;;;;;4941524;28;20392;-70
2022/08/31 09:16:33;;;;;;;4.05;1.00;;;41.10;77.00;;;;;;5019812;28;20052;-70
2022/08/31 09:22:59;;;;;;;3.17;1.00;;;39.40;79.50;;;;;;5016906;28;20516;-70
2022/08/31 09:26:03;;;;;;;6.80;1.20;;;39.50;80.00;;;;;;5016172;28;20053;-71
2022/08/31 09:29:20;;;;;;;2.08;0.85;;;42.30;75.50;;;;;;5025488;28;20036;-70
2022/08/31 09:32:35;;;;;;;1.60;0.70;;;44.60;73.20;;;;;;5016521;28;20041;-70
2022/08/31 09:36:24;;;;;;;3.13;0.90;;;43.70;70.40;;;;;;5019689;28;20060;-70
2022/08/31 09:39:30;;;;;;;2.17;0.90;;;41.70;72.70;;;;;;5021137;28;20052;-70
2022/08/31 09:42:34;;;;;;;3.30;1.08;;;42.60;70.10;;;;;;5015413;28;20053;-70
2022/08/31 09:45:52;;;;;;;1.85;0.75;;;41.50;71.50;;;;;;5019656;28;20061;-71
2022/08/31 09:48:58;;;;;;;3.38;0.77;;;40.60;70.60;;;;;;5018808;28;20053;-70
2022/08/31 09:56:14;;;;;;;3.90;0.80;;;45.00;68.70;;;;;;5020177;28;20388;-72
2022/08/31 09:59:43;;;;;;;3.30;0.90;;;47.60;66.90;;;;;;5018661;28;20048;-72
2022/08/31 10:02:56;;;;;;;1.90;0.80;;;49.90;64.40;;;;;;5026303;28;20049;-72
2022/08/31 10:06:29;;;;;;;6.35;2.25;;;50.70;62.50;;;;;;5019526;28;20040;-71
2022/08/31 10:09:45;;;;;;;3.65;1.13;;;49.80;60.40;;;;;;5022046;28;20048;-71
2022/08/31 10:12:59;;;;;;;1.08;0.70;;;48.70;59.90;;;;;;5020230;28;20037;-71
2022/08/31 10:16:29;;;;;;;4.40;0.80;;;47.80;60.90;;;;;;5017415;28;20040;-71
2022/08/31 10:23:41;;;;;;;3.05;1.10;;;46.40;61.40;;;;;;5018087;28;20048;-71
2022/08/31 10:26:52;;;;;;;3.13;1.13;;;43.90;62.10;;;;;;5020844;28;20044;-72
2022/08/31 10:30:21;;;;;;;4.20;1.65;;;43.80;62.90;;;;;;5020349;28;20060;-71
2022/08/31 10:37:51;;;;;;;1.95;0.90;;;47.70;63.50;;;;;;5016222;28;20049;-72
2022/08/31 10:41:14;;;;;;;3.05;0.90;;;49.50;62.20;;;;;;5017827;28;20408;-71
2022/08/31 10:44:32;;;;;;;1.08;0.70;;;50.80;60.20;;;;;;5024165;28;20048;-72
2022/08/31 10:47:41;;;;;;;3.10;0.95;;;51.40;58.90;;;;;;5026134;28;20056;-71
2022/08/31 10:51:18;;;;;;;3.20;0.80;;;51.60;58.50;;;;;;5018496;28;20045;-71
2022/08/31 10:54:54;;;;;;;4.55;1.25;;;52.20;57.10;;;;;;5018173;28;20044;-69
2022/08/31 10:58:16;;;;;;;1.25;0.90;;;48.90;57.40;;;;;;4992133;28;20037;-70
2022/08/31 11:05:42;;;;;;;3.85;1.20;;;43.10;61.80;;;;;;5023205;28;20032;-70
2022/08/31 11:09:40;;;;;;;3.53;1.00;;;42.80;64.20;;;;;;5013798;28;20045;-71
2022/08/31 11:12:50;;;;;;;4.63;1.13;;;46.20;60.50;;;;;;4998693;28;20056;-72
2022/08/31 11:16:05;;;;;;;1.95;0.82;;;47.30;60.00;;;;;;5017352;28;20057;-73
2022/08/31 11:19:36;;;;;;;4.32;0.82;;;47.70;57.40;;;;;;5019351;28;20036;-70
2022/08/31 11:23:04;;;;;;;4.43;0.77;;;47.30;57.70;;;;;;5017227;28;20044;-70
2022/08/31 11:26:43;;;;;;;1.85;0.75;;;48.40;56.60;;;;;;5018691;28;20048;-71
2022/08/31 11:29:56;;;;;;;2.55;0.88;;;48.60;56.00;;;;;;5024621;28;20051;-70
2022/08/31 11:33:08;;;;;;;2.20;0.70;;;48.50;55.00;;;;;;5019029;28;20064;-71
2022/08/31 11:36:43;;;;;;;2.33;0.93;;;45.60;57.00;;;;;;5016666;28;20041;-71
2022/08/31 11:40:42;;;;;;;2.33;0.63;;;44.40;58.00;;;;;;5031365;28;20048;-71
2022/08/31 11:43:50;;;;;;;3.97;0.85;;;46.50;57.50;;;;;;5030604;28;20048;-70
2022/08/31 11:47:08;;;;;;;2.65;1.15;;;47.60;57.80;;;;;;5030702;28;20041;-71
2022/08/31 11:50:21;;;;;;;2.35;0.90;;;47.60;57.10;;;;;;5030940;28;20045;-72
2022/08/31 11:53:34;;;;;;;2.38;0.98;;;45.10;60.20;;;;;;5030649;28;20061;-72
2022/08/31 11:56:40;;;;;;;6.03;1.00;;;44.40;60.50;;;;;;5031033;28;20057;-72
2022/08/31 11:59:46;;;;;;;2.15;1.00;;;43.60;59.70;;;;;;5030374;28;20048;-72
2022/08/31 12:03:08;;;;;;;4.47;0.98;;;42.70;60.20;;;;;;5030147;28;20056;-71
2022/08/31 12:06:24;;;;;;;3.63;1.17;;;41.40;61.20;;;;;;5034885;28;20036;-65
2022/08/31 12:10:07;;;;;;;3.38;0.98;;;39.90;64.90;;;;;;5033844;28;20068;-66
2022/08/31 12:13:18;;;;;;;6.15;1.20;;;39.20;64.70;;;;;;5034319;28;20045;-66
2022/08/31 12:17:08;;;;;;;2.15;1.20;;;40.20;65.60;;;;;;5033693;28;20108;-66
2022/08/31 12:20:20;;;;;;;2.97;1.00;;;40.10;63.40;;;;;;4976674;28;20050;-66
2022/08/31 12:23:57;;;;;;;2.47;1.50;;;40.90;64.60;;;;;;5033332;28;20045;-67
2022/08/31 12:27:39;;;;;;;4.00;1.10;;;41.80;61.60;;;;;;5034093;28;20396;-67
2022/08/31 12:30:51;;;;;;;2.47;1.27;;;41.90;61.70;;;;;;5033692;28;20053;-67
2022/08/31 12:34:02;;;;;;;1.90;1.00;;;41.10;62.40;;;;;;5033987;28;20040;-66
2022/08/31 12:37:27;;;;;;;6.97;1.40;;;41.70;61.50;;;;;;5033780;28;20036;-64
2022/08/31 12:40:47;;;;;;;6.47;1.13;;;43.50;62.10;;;;;;5034231;28;20046;-67
2022/08/31 12:43:52;;;;;;;2.15;0.80;;;43.90;61.70;;;;;;5033462;28;20052;-66
2022/08/31 12:47:05;;;;;;;1.75;1.00;;;42.20;61.40;;;;;;5033689;28;20393;-65
2022/08/31 12:50:40;;;;;;;2.13;0.80;;;42.30;60.60;;;;;;5033514;28;20421;-66
2022/08/31 12:54:19;;;;;;;3.90;1.00;;;41.10;62.10;;;;;;5033215;28;20036;-72
2022/08/31 12:58:00;;;;;;;3.25;0.90;;;40.70;64.20;;;;;;5034292;28;20036;-72
2022/08/31 13:01:07;;;;;;;5.18;1.35;;;40.20;63.30;;;;;;5033966;28;20045;-72
2022/08/31 13:04:14;;;;;;;1.95;1.00;;;39.20;64.20;;;;;;5033186;28;20040;-72
2022/08/31 13:07:23;;;;;;;2.80;0.98;;;37.80;66.00;;;;;;5033677;28;20400;-72
2022/08/31 13:10:45;;;;;;;4.88;1.10;;;38.10;64.50;;;;;;5033032;28;20040;-71
2022/08/31 13:13:51;;;;;;;2.05;1.10;;;38.00;65.00;;;;;;5033170;28;20049;-71
2022/08/31 13:17:03;;;;;;;3.05;0.98;;;38.60;66.70;;;;;;5032673;28;20396;-71
2022/08/31 13:20:07;;;;;;;2.85;0.93;;;39.30;65.80;;;;;;5033157;28;20060;-72
2022/08/31 13:23:21;;;;;;;3.03;1.20;;;39.40;65.10;;;;;;5033004;28;20041;-72
2022/08/31 13:26:44;;;;;;;4.28;1.65;;;39.80;64.80;;;;;;5032954;28;20064;-70
2022/08/31 13:29:50;;;;;;;3.80;0.93;;;39.20;64.80;;;;;;5033579;28;20375;-72
2022/08/31 13:33:30;;;;;;;6.70;1.17;;;38.60;65.60;;;;;;5033113;28;20048;-71
2022/08/31 13:36:58;;;;;;;3.17;1.23;;;38.30;66.10;;;;;;5032501;28;20495;-72
2022/08/31 13:40:08;;;;;;;2.30;1.10;;;38.60;67.90;;;;;;5032804;28;20244;-72
2022/08/31 13:43:26;;;;;;;5.32;1.20;;;39.00;67.20;;;;;;5032586;28;20052;-72
2022/08/31 13:46:34;;;;;;;4.35;1.38;;;38.00;66.40;;;;;;5033007;28;20052;-72
2022/08/31 13:49:40;;;;;;;3.42;1.02;;;37.20;68.60;;;;;;5032531;28;20044;-71
2022/08/31 13:52:50;;;;;;;2.60;1.20;;;36.00;68.90;;;;;;5032936;28;20041;-71
2022/08/31 13:55:54;;;;;;;3.03;1.20;;;34.50;71.80;;;;;;5032318;28;20044;-71
2022/08/31 13:59:18;;;;;;;1.83;1.15;;;34.00;73.90;;;;;;5033050;28;20056;-72
2022/08/31 14:02:27;;;;;;;4.05;1.13;;;33.30;74.90;;;;;;5032416;28;20053;-71
2022/08/31 14:05:38;;;;;;;3.13;1.52;;;32.70;76.30;;;;;;5031456;28;20052;-71
2022/08/31 14:09:40;;;;;;;5.88;1.25;;;32.30;77.90;;;;;;5032386;28;20388;-71
2022/08/31 14:13:25;;;;;;;4.65;1.45;;;32.00;79.50;;;;;;5031993;28;20392;-71
2022/08/31 14:16:34;;;;;;;4.22;1.33;;;32.00;79.10;;;;;;5031832;28;20052;-71
2022/08/31 14:19:38;;;;;;;2.92;1.30;;;31.80;80.10;;;;;;5031787;28;20040;-70
2022/08/31 14:22:44;;;;;;;3.13;1.33;;;31.70;80.00;;;;;;5031757;28;20109;-72
2022/08/31 14:25:49;;;;;;;4.15;1.20;;;31.60;80.80;;;;;;5031481;28;20041;-72
2022/08/31 14:28:56;;;;;;;3.67;1.30;;;31.50;81.20;;;;;;5031000;28;20048;-71
2022/08/31 14:32:01;;;;;;;2.72;1.52;;;31.30;80.60;;;;;;5031249;28;20335;-71
2022/08/31 14:35:25;;;;;;;5.47;1.55;;;31.20;81.70;;;;;;5031712;28;20045;-72
2022/08/31 14:38:29;;;;;;;2.50;1.60;;;31.20;80.90;;;;;;5031653;28;20052;-71
2022/08/31 14:41:33;;;;;;;4.07;1.40;;;31.10;81.40;;;;;;5031429;28;20047;-71
2022/08/31 14:44:44;;;;;;;4.85;1.50;;;31.00;82.10;;;;;;5031557;28;20396;-70
2022/08/31 14:47:51;;;;;;;3.28;1.75;;;30.90;82.70;;;;;;5031666;28;20039;-70
2022/08/31 14:50:54;;;;;;;2.38;1.50;;;30.90;82.40;;;;;;5031371;28;20044;-70
2022/08/31 14:53:58;;;;;;;4.85;1.90;;;30.90;81.90;;;;;;5031568;28;20052;-71
2022/08/31 14:57:08;;;;;;;3.10;1.60;;;30.80;83.00;;;;;;5031388;28;20044;-71
2022/08/31 15:00:35;;;;;;;8.20;1.50;;;30.90;83.50;;;;;;5030932;28;20045;-72
2022/08/31 15:03:40;;;;;;;4.60;1.52;;;30.90;83.50;;;;;;5030831;28;20068;-71
2022/08/31 15:06:49;;;;;;;4.35;1.73;;;31.00;83.90;;;;;;5031510;28;20155;-71
2022/08/31 15:09:52;;;;;;;2.72;1.50;;;31.00;83.70;;;;;;5030495;28;20336;-71
2022/08/31 15:13:15;;;;;;;3.80;1.55;;;31.40;83.20;;;;;;5031296;28;20044;-71
2022/08/31 15:16:20;;;;;;;2.78;1.38;;;31.90;83.20;;;;;;5031190;28;20048;-73
2022/08/31 15:19:24;;;;;;;6.70;1.70;;;32.30;82.70;;;;;;5031131;28;20040;-71
2022/08/31 15:22:30;;;;;;;5.75;1.85;;;32.40;82.00;;;;;;5030281;28;20044;-70
2022/08/31 15:25:35;;;;;;;4.88;1.35;;;32.40;80.90;;;;;;5031218;28;20048;-71
2022/08/31 15:28:40;;;;;;;2.20;1.25;;;32.30;81.10;;;;;;5030956;28;20045;-71
2022/08/31 15:31:49;;;;;;;4.75;1.60;;;32.20;82.50;;;;;;5030640;28;20056;-72
2022/08/31 15:34:56;;;;;;;3.85;1.40;;;31.80;81.60;;;;;;5030480;28;20040;-73
2022/08/31 15:38:19;;;;;;;2.08;1.40;;;31.80;81.90;;;;;;5030917;28;20048;-72
2022/08/31 15:41:28;;;;;;;3.13;1.50;;;32.00;83.10;;;;;;5035530;28;20111;-73
2022/08/31 15:44:32;;;;;;;4.53;1.73;;;32.00;82.80;;;;;;5034615;28;20052;-73
2022/08/31 15:51:01;;;;;;;4.68;1.60;;;31.80;81.90;;;;;;5034704;28;20514;-73
2022/08/31 15:54:27;;;;;;;5.32;1.85;;;31.50;82.60;;;;;;5034720;28;20045;-72
2022/08/31 15:57:31;;;;;;;7.20;1.80;;;31.00;83.60;;;;;;5034884;28;20044;-72
2022/08/31 16:00:35;;;;;;;3.60;1.70;;;30.60;85.20;;;;;;5034788;28;20052;-73
2022/08/31 16:03:40;;;;;;;2.80;1.40;;;30.30;86.70;;;;;;5034293;28;20056;-72
2022/08/31 16:06:45;;;;;;;2.03;1.58;;;30.00;87.40;;;;;;5035170;28;20052;-73
2022/08/31 16:09:49;;;;;;;3.13;2.17;;;29.90;88.10;;;;;;5034497;28;20044;-71
2022/08/31 16:12:53;;;;;;;4.10;1.80;;;29.70;89.00;;;;;;5034669;28;20061;-72
2022/08/31 16:16:17;;;;;;;12.23;1.70;;;29.50;89.50;;;;;;5034743;28;20510;-72
2022/08/31 16:19:23;;;;;;;2.75;1.80;;;29.40;90.20;;;;;;5034242;28;20040;-72
2022/08/31 16:22:47;;;;;;;6.22;2.22;;;29.30;90.10;;;;;;5033605;28;20052;-71
2022/08/31 16:25:51;;;;;;;2.40;1.63;;;29.40;90.00;;;;;;5034758;28;20040;-72
2022/08/31 16:28:58;;;;;;;6.47;1.77;;;29.40;89.70;;;;;;5034669;28;20500;-71
2022/08/31 16:32:21;;;;;;;4.82;1.80;;;29.50;90.00;;;;;;5034655;28;20048;-72
2022/08/31 16:35:25;;;;;;;10.48;2.10;;;29.60;90.50;;;;;;5034430;28;20048;-73
2022/08/31 16:38:29;;;;;;;5.22;1.75;;;29.70;90.50;;;;;;5034384;28;20040;-72
2022/08/31 16:41:34;;;;;;;4.47;2.20;;;29.80;90.20;;;;;;5034470;28;20052;-72
2022/08/31 16:44:40;;;;;;;4.05;1.77;;;29.80;90.00;;;;;;5034067;28;20052;-72
2022/08/31 16:47:43;;;;;;;5.10;1.90;;;29.90;90.20;;;;;;5034102;28;20052;-71
2022/08/31 16:50:48;;;;;;;6.13;2.10;;;29.80;90.50;;;;;;5032775;28;20044;-70
2022/08/31 16:54:10;;;;;;;5.78;2.22;;;29.60;90.70;;;;;;5032733;28;20036;-72
2022/08/31 16:57:18;;;;;;;5.60;1.88;;;29.40;91.20;;;;;;5034191;28;20036;-71
2022/08/31 17:00:22;;;;;;;3.17;1.83;;;29.20;91.10;;;;;;5033901;28;20044;-72
2022/08/31 17:03:27;;;;;;;7.68;2.10;;;29.00;91.50;;;;;;5033178;28;20048;-72
2022/08/31 17:06:50;;;;;;;4.32;2.00;;;28.90;91.80;;;;;;5033750;28;20060;-72
2022/08/31 17:09:56;;;;;;;9.65;3.00;;;28.70;92.20;;;;;;5033399;28;20062;-72
2022/08/31 17:13:00;;;;;;;5.93;2.15;;;28.50;92.70;;;;;;5033954;28;20049;-72
2022/08/31 17:16:06;;;;;;;4.03;2.20;;;28.30;92.70;;;;;;5033229;28;20047;-71
2022/08/31 17:19:30;;;;;;;5.00;2.28;;;28.10;93.10;;;;;;5033507;28;20036;-71
2022/08/31 17:22:34;;;;;;;3.05;2.10;;;27.90;93.50;;;;;;5032440;28;20507;-72
2022/08/31 17:25:38;;;;;;;4.60;2.22;;;27.80;93.80;;;;;;5033181;28;20536;-71
2022/08/31 17:28:46;;;;;;;6.10;2.50;;;27.70;94.00;;;;;;5033168;28;20053;-71
2022/08/31 17:31:50;;;;;;;4.90;2.28;;;27.50;94.50;;;;;;5032818;28;20072;-71
2022/08/31 17:34:54;;;;;;;6.78;2.10;;;27.40;94.80;;;;;;5033023;28;20044;-71
2022/08/31 17:38:17;;;;;;;3.72;2.10;;;27.30;94.70;;;;;;5032803;28;20049;-71
2022/08/31 17:41:21;;;;;;;5.53;2.10;;;27.30;94.90;;;;;;5033086;28;20468;-71